Time;durP1;ratioP1;P1;durP2;ratioP2;P2;SDS_P1;SDS_P2;PMS_P1;PMS_P2;Temp;Humidity;BMP_temperature;BMP_pressure;BME280_temperature;BME280_humidity;BME280_pressure;Samples;Min_cycle;Max_cycle;Signal;HPM_P1;HPM_P2
2022/10/21 00:01:04;;;;;;;53.17;4.78;;;;;;;;;;5088823;28;20039;-58
2022/10/21 00:03:30;;;;;;;38.13;4.32;;;;;;;;;;5087024;28;20587;-58
2022/10/21 00:05:57;;;;;;;55.55;5.90;;;;;;;;;;5087116;28;20071;-58
2022/10/21 00:08:24;;;;;;;51.55;6.88;;;;;;;;;;5086457;28;20044;-58
2022/10/21 00:10:51;;;;;;;83.07;5.80;;;;;;;;;;5086282;28;20044;-58
2022/10/21 00:13:18;;;;;;;55.55;3.47;;;;;;;;;;5091137;28;20032;-58
2022/10/21 00:15:44;;;;;;;44.78;3.55;;;;;;;;;;5084729;28;20124;-58
2022/10/21 00:18:11;;;;;;;44.03;3.60;;;;;;;;;;5086148;28;20120;-58
2022/10/21 00:20:41;;;;;;;75.95;10.23;;;;;;;;;;5085816;28;20050;-58
2022/10/21 00:23:07;;;;;;;41.72;3.55;;;;;;;;;;5090524;28;20040;-58
2022/10/21 00:25:34;;;;;;;81.80;7.82;;;;;;;;;;5089266;28;20116;-59
2022/10/21 00:28:00;;;;;;;59.97;7.78;;;;;;;;;;5088751;28;20184;-58
2022/10/21 00:30:27;;;;;;;42.97;3.40;;;;;;;;;;5085730;28;20532;-58
2022/10/21 00:32:53;;;;;;;55.92;5.00;;;;;;;;;;5085813;28;20040;-59
2022/10/21 00:35:25;;;;;;;62.08;8.48;;;;;;;;;;5090291;28;20039;-60
2022/10/21 00:37:52;;;;;;;56.20;5.75;;;;;;;;;;5086310;28;20045;-60
2022/10/21 00:40:19;;;;;;;35.03;2.28;;;;;;;;;;5090864;28;20036;-58
2022/10/21 00:42:45;;;;;;;94.22;7.28;;;;;;;;;;5085280;28;20071;-57
2022/10/21 00:45:20;;;;;;;42.08;5.30;;;;;;;;;;5085846;28;20051;-57
2022/10/21 00:47:49;;;;;;;61.13;5.65;;;;;;;;;;5085566;28;20055;-58
2022/10/21 00:50:27;;;;;;;51.03;3.47;;;;;;;;;;5086053;28;20046;-58
2022/10/21 00:52:55;;;;;;;46.20;6.43;;;;;;;;;;5085625;28;20131;-57
2022/10/21 00:55:22;;;;;;;88.45;6.28;;;;;;;;;;5085886;28;20485;-57
2022/10/21 00:57:50;;;;;;;42.63;5.57;;;;;;;;;;5085374;28;20111;-57
2022/10/21 01:00:17;;;;;;;54.08;5.45;;;;;;;;;;5085817;28;20845;-57
2022/10/21 01:02:43;;;;;;;76.00;7.47;;;;;;;;;;5078651;28;20135;-57
2022/10/21 01:05:10;;;;;;;62.05;4.68;;;;;;;;;;5085340;28;20045;-57
2022/10/21 01:07:37;;;;;;;86.45;10.80;;;;;;;;;;5085363;28;20135;-57
2022/10/21 01:10:07;;;;;;;70.60;9.32;;;;;;;;;;5087944;28;20044;-57
2022/10/21 01:12:42;;;;;;;42.90;3.60;;;;;;;;;;5084250;28;20111;-57
2022/10/21 01:15:20;;;;;;;34.63;5.05;;;;;;;;;;5089436;28;20044;-57
2022/10/21 01:17:50;;;;;;;35.80;2.40;;;;;;;;;;5085060;28;20512;-57
2022/10/21 01:20:29;;;;;;;43.28;3.58;;;;;;;;;;5084946;28;20558;-57
2022/10/21 01:23:14;;;;;;;76.60;8.35;;;;;;;;;;5085243;28;20107;-57
2022/10/21 01:25:40;;;;;;;91.22;5.68;;;;;;;;;;5085501;28;20052;-57
2022/10/21 01:28:26;;;;;;;64.13;11.38;;;;;;;;;;5087678;28;20135;-57
2022/10/21 01:30:54;;;;;;;49.00;4.53;;;;;;;;;;5085591;28;20123;-57
2022/10/21 01:33:27;;;;;;;50.00;4.70;;;;;;;;;;5085135;28;20044;-57
2022/10/21 01:36:00;;;;;;;28.47;4.00;;;;;;;;;;5085285;28;20044;-58
2022/10/21 01:38:50;;;;;;;59.10;5.10;;;;;;;;;;5084630;28;20285;-57
2022/10/21 01:41:37;;;;;;;61.00;4.88;;;;;;;;;;5088443;28;20075;-57
2022/10/21 01:44:09;;;;;;;50.15;4.65;;;;;;;;;;5083299;28;20036;-57
2022/10/21 01:46:41;;;;;;;57.08;3.78;;;;;;;;;;5087791;28;20218;-57
2022/10/21 01:49:16;;;;;;;68.80;4.55;;;;;;;;;;5087630;28;20132;-57
2022/10/21 01:51:43;;;;;;;45.58;3.00;;;;;;;;;;5084972;28;20043;-55
2022/10/21 01:54:13;;;;;;;50.75;4.05;;;;;;;;;;5088513;28;20032;-56
2022/10/21 01:56:41;;;;;;;65.47;5.55;;;;;;;;;;5083576;28;20385;-57
2022/10/21 01:59:09;;;;;;;46.47;3.97;;;;;;;;;;5084632;28;20136;-56
2022/10/21 02:01:36;;;;;;;94.57;12.82;;;;;;;;;;5087359;28;20040;-56
2022/10/21 02:04:04;;;;;;;39.50;3.88;;;;;;;;;;5086820;28;20093;-57
2022/10/21 02:06:31;;;;;;;46.08;3.92;;;;;;;;;;5084381;28;20119;-57
2022/10/21 02:08:58;;;;;;;71.00;7.03;;;;;;;;;;5083793;28;20123;-57
2022/10/21 02:11:26;;;;;;;64.57;8.75;;;;;;;;;;5083815;28;20047;-58
2022/10/21 02:13:52;;;;;;;37.10;2.75;;;;;;;;;;5085316;28;20115;-59
2022/10/21 02:16:21;;;;;;;47.15;5.80;;;;;;;;;;5088698;28;20139;-59
2022/10/21 02:18:47;;;;;;;54.10;3.78;;;;;;;;;;5083930;28;20488;-59
2022/10/21 02:21:18;;;;;;;49.85;7.20;;;;;;;;;;5088107;28;20528;-59
2022/10/21 02:23:56;;;;;;;82.35;5.65;;;;;;;;;;5083890;28;20070;-59
2022/10/21 02:26:24;;;;;;;39.03;4.95;;;;;;;;;;5084148;28;20044;-58
2022/10/21 02:28:52;;;;;;;69.32;4.97;;;;;;;;;;5084778;28;20040;-59
2022/10/21 02:31:29;;;;;;;42.90;5.78;;;;;;;;;;5088548;28;20489;-59
2022/10/21 02:33:55;;;;;;;29.63;6.85;;;;;;;;;;5085368;28;20040;-59
2022/10/21 02:36:41;;;;;;;54.05;4.57;;;;;;;;;;5084117;28;20067;-58
2022/10/21 02:39:18;;;;;;;97.65;5.90;;;;;;;;;;5083436;28;20119;-58
2022/10/21 02:41:46;;;;;;;75.75;5.25;;;;;;;;;;5083748;28;20119;-58
2022/10/21 02:44:13;;;;;;;63.22;4.43;;;;;;;;;;5084039;28;20041;-58
2022/10/21 02:46:41;;;;;;;65.47;5.50;;;;;;;;;;5086504;28;20036;-58
2022/10/21 02:49:08;;;;;;;57.40;4.63;;;;;;;;;;5086524;28;20139;-58
2022/10/21 02:51:34;;;;;;;60.92;4.38;;;;;;;;;;5084356;28;20040;-58
2022/10/21 02:54:01;;;;;;;42.50;6.07;;;;;;;;;;5083817;28;20040;-59
2022/10/21 02:56:27;;;;;;;55.50;4.82;;;;;;;;;;5083823;28;20043;-59
2022/10/21 02:58:55;;;;;;;72.28;5.47;;;;;;;;;;5088171;28;20028;-59
2022/10/21 03:01:21;;;;;;;52.70;7.63;;;;;;;;;;5089212;28;20122;-59
2022/10/21 03:03:48;;;;;;;61.13;3.95;;;;;;;;;;5083860;28;20467;-58
2022/10/21 03:06:15;;;;;;;42.92;4.45;;;;;;;;;;5083730;28;20046;-58
2022/10/21 03:08:41;;;;;;;56.58;4.07;;;;;;;;;;5083757;28;20048;-58
2022/10/21 03:11:08;;;;;;;67.00;5.30;;;;;;;;;;5082962;28;20045;-59
2022/10/21 03:13:34;;;;;;;74.78;4.63;;;;;;;;;;5087358;28;20566;-59
2022/10/21 03:16:01;;;;;;;30.38;5.40;;;;;;;;;;5085343;28;20135;-59
2022/10/21 03:18:27;;;;;;;50.70;3.33;;;;;;;;;;5083261;28;20032;-59
2022/10/21 03:20:54;;;;;;;55.05;4.38;;;;;;;;;;5083420;28;20046;-58
2022/10/21 03:23:21;;;;;;;58.88;4.63;;;;;;;;;;5083624;28;20032;-58
2022/10/21 03:25:47;;;;;;;75.28;6.65;;;;;;;;;;5085194;28;20044;-57
2022/10/21 03:28:16;;;;;;;37.38;3.30;;;;;;;;;;5087846;28;20048;-58
2022/10/21 03:30:43;;;;;;;39.67;3.50;;;;;;;;;;5083284;28;20262;-58
2022/10/21 03:33:09;;;;;;;80.18;5.03;;;;;;;;;;5086389;28;20122;-57
2022/10/21 03:35:36;;;;;;;38.88;3.38;;;;;;;;;;5087084;28;20135;-57
2022/10/21 03:38:02;;;;;;;39.22;2.85;;;;;;;;;;5087179;28;20041;-57
2022/10/21 03:40:29;;;;;;;67.75;4.38;;;;;;;;;;5090930;28;20555;-58
2022/10/21 03:42:56;;;;;;;47.90;4.20;;;;;;;;;;5087522;28;20089;-57
2022/10/21 03:45:23;;;;;;;57.95;6.60;;;;;;;;;;5086874;28;20039;-57
2022/10/21 03:47:49;;;;;;;52.72;3.63;;;;;;;;;;5087230;28;20040;-57
2022/10/21 03:50:16;;;;;;;50.45;4.43;;;;;;;;;;5091299;28;20044;-58
2022/10/21 03:52:47;;;;;;;76.07;7.20;;;;;;;;;;5089393;28;20434;-56
2022/10/21 03:55:15;;;;;;;86.53;6.95;;;;;;;;;;5090176;28;20047;-60
2022/10/21 03:57:42;;;;;;;49.28;4.40;;;;;;;;;;5086602;28;20123;-59
2022/10/21 04:00:09;;;;;;;46.60;2.90;;;;;;;;;;5086665;28;20059;-59
2022/10/21 04:02:39;;;;;;;66.82;4.95;;;;;;;;;;5086446;28;20488;-58
2022/10/21 04:05:06;;;;;;;38.00;2.35;;;;;;;;;;5086998;28;20090;-57
2022/10/21 04:07:33;;;;;;;50.80;3.35;;;;;;;;;;5089901;28;20052;-58
2022/10/21 04:09:59;;;;;;;79.85;8.45;;;;;;;;;;5087502;28;20123;-58
2022/10/21 04:12:26;;;;;;;30.38;4.13;;;;;;;;;;5087545;28;20147;-57
2022/10/21 04:14:52;;;;;;;54.58;4.15;;;;;;;;;;5086182;28;20825;-58
2022/10/21 04:17:19;;;;;;;86.47;7.57;;;;;;;;;;5090357;28;20119;-58
2022/10/21 04:19:45;;;;;;;63.80;6.88;;;;;;;;;;5088300;28;20032;-58
2022/10/21 04:22:12;;;;;;;49.45;4.80;;;;;;;;;;5088786;28;20746;-58
2022/10/21 04:24:38;;;;;;;75.03;5.65;;;;;;;;;;5086034;28;20377;-57
2022/10/21 04:27:05;;;;;;;67.97;4.53;;;;;;;;;;5085569;28;20047;-57
2022/10/21 04:29:31;;;;;;;33.05;2.33;;;;;;;;;;5086313;28;20076;-57
2022/10/21 04:31:58;;;;;;;56.67;6.50;;;;;;;;;;5086333;28;20093;-57
2022/10/21 04:34:25;;;;;;;31.88;2.88;;;;;;;;;;5091147;28;20222;-57
2022/10/21 04:36:51;;;;;;;59.78;4.53;;;;;;;;;;5085209;28;20127;-58
2022/10/21 04:39:18;;;;;;;47.45;2.88;;;;;;;;;;5086329;28;20118;-58
2022/10/21 04:41:46;;;;;;;46.33;3.05;;;;;;;;;;5085454;28;20063;-57
2022/10/21 04:44:13;;;;;;;54.85;4.13;;;;;;;;;;5085824;28;20127;-58
2022/10/21 04:46:39;;;;;;;102.95;7.78;;;;;;;;;;5088483;28;20043;-57
2022/10/21 04:49:06;;;;;;;45.03;3.95;;;;;;;;;;5087877;28;20126;-56
2022/10/21 04:51:32;;;;;;;45.45;4.65;;;;;;;;;;5085261;28;20127;-58
2022/10/21 04:53:59;;;;;;;43.22;7.22;;;;;;;;;;5085688;28;20076;-57
2022/10/21 04:56:25;;;;;;;65.13;3.95;;;;;;;;;;5079003;28;20098;-57
2022/10/21 04:58:52;;;;;;;74.75;4.88;;;;;;;;;;5086618;28;20037;-57
2022/10/21 05:01:18;;;;;;;40.03;2.53;;;;;;;;;;5089549;28;20158;-57
2022/10/21 05:03:45;;;;;;;46.85;3.60;;;;;;;;;;5085505;28;20051;-57
2022/10/21 05:06:12;;;;;;;30.60;2.10;;;;;;;;;;5085197;28;20565;-57
2022/10/21 05:08:38;;;;;;;52.28;3.85;;;;;;;;;;5089359;28;20097;-57
2022/10/21 05:11:05;;;;;;;60.20;6.90;;;;;;;;;;5085012;28;20068;-58
2022/10/21 05:13:32;;;;;;;36.00;2.80;;;;;;;;;;5089999;28;20068;-58
2022/10/21 05:16:00;;;;;;;17.35;1.80;;;;;;;;;;5089889;28;20047;-58
2022/10/21 05:18:26;;;;;;;77.43;5.07;;;;;;;;;;5084711;28;20042;-58
2022/10/21 05:20:54;;;;;;;67.07;6.00;;;;;;;;;;5085131;28;20072;-57
2022/10/21 05:23:20;;;;;;;33.15;3.40;;;;;;;;;;5085763;28;20079;-57
2022/10/21 05:25:49;;;;;;;59.15;3.67;;;;;;;;;;5086769;28;20036;-57
2022/10/21 05:28:16;;;;;;;28.25;2.53;;;;;;;;;;5088507;28;20407;-57
2022/10/21 05:30:42;;;;;;;64.00;4.25;;;;;;;;;;5085064;28;20032;-57
2022/10/21 05:33:09;;;;;;;50.70;3.67;;;;;;;;;;5084961;28;20777;-57
2022/10/21 05:35:36;;;;;;;25.35;3.10;;;;;;;;;;5085227;28;20042;-57
2022/10/21 05:38:03;;;;;;;32.45;5.70;;;;;;;;;;5084958;28;20059;-58
2022/10/21 05:40:30;;;;;;;80.20;5.53;;;;;;;;;;5089621;28;20046;-58
2022/10/21 05:42:56;;;;;;;34.85;2.78;;;;;;;;;;5084075;28;20126;-58
2022/10/21 05:45:23;;;;;;;42.28;6.57;;;;;;;;;;5085123;28;20044;-58
2022/10/21 05:47:50;;;;;;;54.33;3.60;;;;;;;;;;5088847;28;20097;-58
2022/10/21 05:50:16;;;;;;;55.13;4.22;;;;;;;;;;5085272;28;20119;-58
2022/10/21 05:52:43;;;;;;;85.18;5.80;;;;;;;;;;5086809;28;20413;-58
2022/10/21 05:55:09;;;;;;;94.32;11.82;;;;;;;;;;5085543;28;20488;-59
2022/10/21 05:57:36;;;;;;;70.13;5.35;;;;;;;;;;5083290;28;20032;-58
2022/10/21 06:00:05;;;;;;;45.80;4.15;;;;;;;;;;5083393;28;20044;-57
2022/10/21 06:02:31;;;;;;;104.78;9.43;;;;;;;;;;5083061;28;20040;-59
2022/10/21 06:04:58;;;;;;;46.25;3.53;;;;;;;;;;5083887;28;20075;-58
2022/10/21 06:07:24;;;;;;;27.67;2.03;;;;;;;;;;5088182;28;20127;-58
2022/10/21 06:09:51;;;;;;;37.88;3.28;;;;;;;;;;5084248;28;20044;-58
2022/10/21 06:12:20;;;;;;;42.42;3.33;;;;;;;;;;5083847;28;20093;-58
2022/10/21 06:14:47;;;;;;;73.10;6.63;;;;;;;;;;5082976;28;20062;-58
2022/10/21 06:17:13;;;;;;;61.75;5.30;;;;;;;;;;5083854;28;20066;-58
2022/10/21 06:19:40;;;;;;;43.95;2.83;;;;;;;;;;5087679;28;20036;-58
2022/10/21 06:22:07;;;;;;;40.95;3.47;;;;;;;;;;5086126;28;20040;-58
2022/10/21 06:24:33;;;;;;;56.28;4.78;;;;;;;;;;5084028;28;20028;-59
2022/10/21 06:27:00;;;;;;;46.42;5.00;;;;;;;;;;5088599;28;20119;-58
2022/10/21 06:29:26;;;;;;;22.67;2.55;;;;;;;;;;5084410;28;20051;-58
2022/10/21 06:31:53;;;;;;;44.47;6.07;;;;;;;;;;5085363;28;20440;-57
2022/10/21 06:34:19;;;;;;;32.38;3.80;;;;;;;;;;5088044;28;20515;-57
2022/10/21 06:36:46;;;;;;;38.63;4.35;;;;;;;;;;5084158;28;20086;-57
2022/10/21 06:39:12;;;;;;;39.13;3.70;;;;;;;;;;5083939;28;20032;-57
2022/10/21 06:41:39;;;;;;;32.20;4.57;;;;;;;;;;5083292;28;20157;-58
2022/10/21 06:44:05;;;;;;;41.60;3.67;;;;;;;;;;5083901;28;20047;-58
2022/10/21 06:46:32;;;;;;;37.13;5.22;;;;;;;;;;5088213;28;20066;-57
2022/10/21 06:48:58;;;;;;;50.60;3.97;;;;;;;;;;5085701;28;20051;-57
2022/10/21 06:51:25;;;;;;;67.68;6.18;;;;;;;;;;5084555;28;20036;-57
2022/10/21 06:53:53;;;;;;;61.22;3.97;;;;;;;;;;5084602;28;20492;-57
2022/10/21 06:56:20;;;;;;;48.28;4.00;;;;;;;;;;5083934;28;20044;-58
2022/10/21 06:58:48;;;;;;;52.67;3.60;;;;;;;;;;5085742;28;20048;-58
2022/10/21 07:01:19;;;;;;;58.83;6.07;;;;;;;;;;5085943;28;20048;-57
2022/10/21 07:04:00;;;;;;;49.05;4.05;;;;;;;;;;5081616;28;20041;-57
2022/10/21 07:06:26;;;;;;;33.13;2.25;;;;;;;;;;5079005;28;20118;-58
2022/10/21 07:08:53;;;;;;;73.45;5.38;;;;;;;;;;5087266;28;20062;-58
2022/10/21 07:11:24;;;;;;;37.35;2.42;;;;;;;;;;5087456;28;20043;-59
2022/10/21 07:13:50;;;;;;;48.38;5.95;;;;;;;;;;5089581;28;20439;-58
2022/10/21 07:16:27;;;;;;;35.50;2.33;;;;;;;;;;5090373;28;20495;-58
2022/10/21 07:18:54;;;;;;;86.18;7.70;;;;;;;;;;5085369;28;20067;-58
2022/10/21 07:21:21;;;;;;;62.10;5.53;;;;;;;;;;5085560;28;20036;-59
2022/10/21 07:23:50;;;;;;;40.60;3.63;;;;;;;;;;5085954;28;20059;-58
2022/10/21 07:26:16;;;;;;;49.40;4.78;;;;;;;;;;5085444;28;20473;-58
2022/10/21 07:28:46;;;;;;;88.78;5.63;;;;;;;;;;5089298;28;20044;-57
2022/10/21 07:31:16;;;;;;;46.80;6.35;;;;;;;;;;5089330;28;20519;-57
2022/10/21 07:33:43;;;;;;;19.88;2.45;;;;;;;;;;5087787;28;20488;-58
2022/10/21 07:36:14;;;;;;;43.20;2.75;;;;;;;;;;5087056;28;20047;-57
2022/10/21 07:38:45;;;;;;;34.58;2.63;;;;;;;;;;5087384;28;20044;-57
2022/10/21 07:41:15;;;;;;;36.08;3.20;;;;;;;;;;5086892;28;20499;-57
2022/10/21 07:43:42;;;;;;;66.97;4.53;;;;;;;;;;5091344;28;20048;-59
2022/10/21 07:46:09;;;;;;;28.23;2.42;;;;;;;;;;5091917;28;20044;-59
2022/10/21 07:48:35;;;;;;;36.45;2.50;;;;;;;;;;5087193;28;20040;-58
2022/10/21 07:51:06;;;;;;;24.55;1.83;;;;;;;;;;5086816;28;20564;-58
2022/10/21 07:53:33;;;;;;;48.08;3.10;;;;;;;;;;5086936;28;20036;-58
2022/10/21 07:56:00;;;;;;;51.80;4.03;;;;;;;;;;5088469;28;20056;-59
2022/10/21 07:58:27;;;;;;;24.90;1.90;;;;;;;;;;5089874;28;20047;-59
2022/10/21 08:00:56;;;;;;;64.82;4.97;;;;;;;;;;5085862;28;20044;-60
2022/10/21 08:03:23;;;;;;;51.72;3.40;;;;;;;;;;5086518;28;20098;-60
2022/10/21 08:05:50;;;;;;;47.25;4.55;;;;;;;;;;5086766;28;20036;-60
2022/10/21 08:08:16;;;;;;;27.08;1.98;;;;;;;;;;5086861;28;20055;-60
2022/10/21 08:10:43;;;;;;;101.55;6.53;;;;;;;;;;5088667;28;20048;-60
2022/10/21 08:13:09;;;;;;;24.00;1.85;;;;;;;;;;5088475;28;20109;-60
2022/10/21 08:15:40;;;;;;;47.33;3.13;;;;;;;;;;5086458;28;20040;-60
2022/10/21 08:18:06;;;;;;;55.92;8.88;;;;;;;;;;5086007;28;20044;-60
2022/10/21 08:20:33;;;;;;;39.55;5.25;;;;;;;;;;5086012;28;20032;-60
2022/10/21 08:22:59;;;;;;;59.17;5.07;;;;;;;;;;5090132;28;20051;-59
2022/10/21 08:25:28;;;;;;;84.38;6.32;;;;;;;;;;5090846;28;20484;-59
2022/10/21 08:27:55;;;;;;;49.65;3.35;;;;;;;;;;5086190;28;20067;-59
2022/10/21 08:30:21;;;;;;;39.92;3.85;;;;;;;;;;5086625;28;20122;-59
2022/10/21 08:32:48;;;;;;;40.92;2.90;;;;;;;;;;5086009;28;20131;-59
2022/10/21 08:35:14;;;;;;;37.95;4.07;;;;;;;;;;5086397;28;20029;-58
2022/10/21 08:37:41;;;;;;;48.40;3.22;;;;;;;;;;5089732;28;20052;-59
2022/10/21 08:40:08;;;;;;;51.92;3.53;;;;;;;;;;5087695;28;20058;-59
2022/10/21 08:42:41;;;;;;;24.42;1.65;;;;;;;;;;5085597;28;20040;-59
2022/10/21 08:45:12;;;;;;;21.60;1.63;;;;;;;;;;5086228;28;20439;-59
2022/10/21 08:47:44;;;;;;;30.95;2.67;;;;;;;;;;5085838;28;20710;-58
2022/10/21 08:50:13;;;;;;;42.47;3.05;;;;;;;;;;5080490;28;20044;-58
2022/10/21 08:52:42;;;;;;;30.70;2.03;;;;;;;;;;5089524;28;20040;-58
2022/10/21 08:55:14;;;;;;;28.00;3.00;;;;;;;;;;5090270;28;20038;-58
2022/10/21 08:57:41;;;;;;;36.63;2.95;;;;;;;;;;5085763;28;20048;-58
2022/10/21 09:00:19;;;;;;;43.80;3.70;;;;;;;;;;5085060;28;20509;-58
2022/10/21 09:02:51;;;;;;;46.35;3.55;;;;;;;;;;5089492;28;20356;-58
2022/10/21 09:05:18;;;;;;;33.13;2.28;;;;;;;;;;5085593;28;20123;-59
2022/10/21 09:07:56;;;;;;;47.25;3.20;;;;;;;;;;5088362;28;20060;-61
2022/10/21 09:10:23;;;;;;;42.40;3.22;;;;;;;;;;5088358;28;20036;-58
2022/10/21 09:12:49;;;;;;;56.08;3.97;;;;;;;;;;5084711;28;20051;-58
2022/10/21 09:15:34;;;;;;;22.50;5.05;;;;;;;;;;5085638;28;20098;-58
2022/10/21 09:18:21;;;;;;;44.17;4.07;;;;;;;;;;5084988;28;20697;-58
2022/10/21 09:20:54;;;;;;;70.45;8.18;;;;;;;;;;5074212;28;20097;-58
2022/10/21 09:23:48;;;;;;;76.32;5.10;;;;;;;;;;5082898;28;20040;-58
2022/10/21 09:26:33;;;;;;;65.07;4.28;;;;;;;;;;5085696;28;20037;-58
2022/10/21 09:29:19;;;;;;;57.20;4.30;;;;;;;;;;5086089;28;20094;-58
2022/10/21 09:31:46;;;;;;;76.82;5.03;;;;;;;;;;5085898;28;20047;-57
2022/10/21 09:34:26;;;;;;;36.75;2.58;;;;;;;;;;5089198;28;20100;-57
2022/10/21 09:36:52;;;;;;;43.80;6.22;;;;;;;;;;5085364;28;20130;-57
2022/10/21 09:39:27;;;;;;;26.60;4.65;;;;;;;;;;5085917;28;20042;-58
2022/10/21 09:41:56;;;;;;;21.25;1.55;;;;;;;;;;5083520;28;20054;-57
2022/10/21 09:44:27;;;;;;;41.65;2.92;;;;;;;;;;5080703;28;20047;-58
2022/10/21 09:46:54;;;;;;;81.18;5.30;;;;;;;;;;5087117;28;20523;-57
2022/10/21 09:49:30;;;;;;;20.13;1.85;;;;;;;;;;5089147;28;20408;-57
2022/10/21 09:52:18;;;;;;;44.50;4.93;;;;;;;;;;5088160;28;20158;-57
2022/10/21 09:54:45;;;;;;;42.63;5.18;;;;;;;;;;5085279;28;20499;-58
2022/10/21 09:57:27;;;;;;;31.83;2.25;;;;;;;;;;5084581;28;20055;-58
2022/10/21 09:59:56;;;;;;;17.73;1.27;;;;;;;;;;5085359;28;20072;-59
2022/10/21 10:02:34;;;;;;;40.17;3.63;;;;;;;;;;5089255;28;20038;-58
2022/10/21 10:05:04;;;;;;;49.97;3.78;;;;;;;;;;5085921;28;20115;-59
2022/10/21 10:07:33;;;;;;;57.78;4.63;;;;;;;;;;5089679;28;20048;-58
2022/10/21 10:10:00;;;;;;;9.65;0.77;;;;;;;;;;5085136;28;20048;-58
2022/10/21 10:12:27;;;;;;;38.13;2.63;;;;;;;;;;5083961;28;20041;-58
2022/10/21 10:14:54;;;;;;;59.28;3.97;;;;;;;;;;5084661;28;20044;-59
2022/10/21 10:17:32;;;;;;;46.40;2.97;;;;;;;;;;5085147;28;20036;-59
2022/10/21 10:20:05;;;;;;;33.83;2.65;;;;;;;;;;5086142;28;20068;-59
2022/10/21 10:22:36;;;;;;;20.70;1.50;;;;;;;;;;5090234;28;20047;-58
2022/10/21 17:34:49;;;;;;;12.68;1.10;;;;;;;;;;5095064;27;20573;-54
2022/10/21 17:37:16;;;;;;;32.85;2.60;;;;;;;;;;5066502;28;20033;-54
2022/10/21 17:39:43;;;;;;;79.07;5.63;;;;;;;;;;5061216;28;20171;-54
2022/10/21 17:42:12;;;;;;;86.95;7.22;;;;;;;;;;5061067;28;20471;-55
2022/10/21 17:44:39;;;;;;;27.75;6.07;;;;;;;;;;5059223;28;20050;-54
2022/10/21 17:47:05;;;;;;;74.90;5.45;;;;;;;;;;5060874;28;20034;-55
2022/10/21 17:49:32;;;;;;;73.00;6.65;;;;;;;;;;5060902;28;20048;-55
2022/10/21 17:51:58;;;;;;;122.45;8.27;;;;;;;;;;5079654;28;20053;-55
2022/10/21 17:54:25;;;;;;;56.25;3.85;;;;;;;;;;5061313;28;20078;-56
2022/10/21 17:56:55;;;;;;;24.77;3.30;;;;;;;;;;5059954;28;20048;-55
2022/10/21 17:59:22;;;;;;;35.35;2.55;;;;;;;;;;5061397;28;20041;-55
2022/10/21 18:01:48;;;;;;;49.75;3.47;;;;;;;;;;5061353;28;20037;-55
2022/10/21 18:04:15;;;;;;;10.05;1.42;;;;;;;;;;5066322;28;20047;-56
2022/10/21 18:06:41;;;;;;;43.17;3.10;;;;;;;;;;5059477;28;20449;-55
2022/10/21 18:09:08;;;;;;;42.50;2.92;;;;;;;;;;5061670;28;20051;-54
2022/10/21 18:11:35;;;;;;;37.28;3.50;;;;;;;;;;5059106;28;20040;-54
2022/10/21 18:14:01;;;;;;;54.95;3.75;;;;;;;;;;5060896;28;20140;-54
2022/10/21 18:16:28;;;;;;;59.92;4.15;;;;;;;;;;5063890;28;20503;-55
2022/10/21 18:18:55;;;;;;;26.75;2.30;;;;;;;;;;5062948;28;20127;-54
2022/10/21 18:21:28;;;;;;;24.45;2.00;;;;;;;;;;5061294;28;20402;-55
2022/10/21 18:23:55;;;;;;;54.35;4.05;;;;;;;;;;5060259;28;20119;-53
2022/10/21 18:26:26;;;;;;;78.13;6.03;;;;;;;;;;5060373;28;20529;-52
2022/10/21 18:28:55;;;;;;;17.73;1.63;;;;;;;;;;5061182;28;20364;-52
2022/10/21 18:31:23;;;;;;;41.83;4.07;;;;;;;;;;5077934;28;20036;-54
2022/10/21 18:33:52;;;;;;;26.02;1.88;;;;;;;;;;5059209;28;20041;-55
2022/10/21 18:36:18;;;;;;;30.77;3.28;;;;;;;;;;5044059;28;20047;-54
2022/10/21 18:38:45;;;;;;;39.13;3.53;;;;;;;;;;5047014;28;20049;-55
2022/10/21 18:41:16;;;;;;;55.15;6.35;;;;;;;;;;5046982;28;20045;-54
2022/10/21 18:43:47;;;;;;;19.05;2.80;;;;;;;;;;5047802;28;20083;-55
2022/10/21 18:46:13;;;;;;;58.00;4.13;;;;;;;;;;5050558;28;20186;-53
2022/10/21 18:48:40;;;;;;;37.25;2.58;;;;;;;;;;5051204;28;20049;-55
2022/10/21 18:51:08;;;;;;;18.83;2.00;;;;;;;;;;5047082;28;20650;-53
2022/10/21 18:53:35;;;;;;;35.03;2.53;;;;;;;;;;5046737;28;20049;-54
2022/10/21 18:56:05;;;;;;;52.33;4.55;;;;;;;;;;5046982;28;20048;-55
2022/10/21 18:58:32;;;;;;;123.63;8.90;;;;;;;;;;5047691;28;20128;-54
2022/10/21 19:00:59;;;;;;;61.92;6.20;;;;;;;;;;5049365;28;20048;-55
2022/10/21 19:03:26;;;;;;;39.05;3.30;;;;;;;;;;5046798;28;20033;-54
2022/10/21 19:05:53;;;;;;;41.40;3.30;;;;;;;;;;5045241;28;20049;-55
2022/10/21 19:08:19;;;;;;;18.30;2.95;;;;;;;;;;5046660;28;20545;-54
2022/10/21 19:10:46;;;;;;;39.47;3.88;;;;;;;;;;5047449;28;20120;-54
2022/10/21 19:13:12;;;;;;;41.67;3.97;;;;;;;;;;5050905;28;20037;-54
2022/10/21 19:15:40;;;;;;;34.75;2.88;;;;;;;;;;5045174;28;20049;-53
2022/10/21 19:18:10;;;;;;;31.20;2.30;;;;;;;;;;5046350;28;20049;-49
2022/10/21 19:20:36;;;;;;;60.83;6.82;;;;;;;;;;5046157;28;20060;-50
2022/10/21 19:23:02;;;;;;;57.70;5.28;;;;;;;;;;5046566;28;20042;-55
2022/10/21 19:25:29;;;;;;;47.72;5.55;;;;;;;;;;5049774;28;20037;-58
2022/10/21 19:27:55;;;;;;;27.77;1.92;;;;;;;;;;5047365;28;20047;-57
2022/10/21 19:30:22;;;;;;;56.83;5.65;;;;;;;;;;5048977;28;20068;-55
2022/10/21 19:32:48;;;;;;;13.35;1.88;;;;;;;;;;5054420;28;20053;-55
2022/10/21 19:35:15;;;;;;;15.90;1.23;;;;;;;;;;5040729;28;20513;-57
2022/10/21 19:37:41;;;;;;;32.95;2.55;;;;;;;;;;5047498;28;20105;-56
2022/10/21 19:40:08;;;;;;;28.92;2.88;;;;;;;;;;5063033;28;20419;-57
2022/10/21 19:42:35;;;;;;;92.90;6.65;;;;;;;;;;5038937;28;20045;-54
2022/10/21 19:45:02;;;;;;;59.85;4.07;;;;;;;;;;5046268;28;20600;-55
2022/10/21 19:47:30;;;;;;;38.50;8.25;;;;;;;;;;5043214;28;20037;-57
2022/10/21 19:49:56;;;;;;;127.53;8.55;;;;;;;;;;5045003;28;20453;-56
2022/10/21 19:52:23;;;;;;;70.55;5.00;;;;;;;;;;5048959;28;20045;-56
2022/10/21 19:54:51;;;;;;;66.30;5.07;;;;;;;;;;5044098;28;20060;-56
2022/10/21 19:57:17;;;;;;;13.60;1.55;;;;;;;;;;5040410;28;20130;-57
2022/10/21 19:59:44;;;;;;;59.83;9.75;;;;;;;;;;5041831;28;20131;-58
2022/10/21 20:02:10;;;;;;;71.88;4.95;;;;;;;;;;5045338;28;20123;-56
2022/10/21 20:04:37;;;;;;;61.22;4.18;;;;;;;;;;5048716;28;20052;-56
2022/10/21 20:07:03;;;;;;;39.03;3.10;;;;;;;;;;5050099;28;20044;-55
2022/10/21 20:09:30;;;;;;;48.33;3.25;;;;;;;;;;5045055;28;20041;-57
2022/10/21 20:12:01;;;;;;;67.30;8.35;;;;;;;;;;5044999;28;20052;-56
2022/10/21 20:14:28;;;;;;;57.53;3.90;;;;;;;;;;5046572;28;20037;-57
2022/10/21 20:16:54;;;;;;;38.30;4.85;;;;;;;;;;5045505;28;20659;-56
2022/10/21 20:19:21;;;;;;;75.93;6.90;;;;;;;;;;5049857;28;20048;-57
2022/10/21 20:21:48;;;;;;;34.58;3.25;;;;;;;;;;5045749;28;20095;-56
2022/10/21 20:24:14;;;;;;;56.25;5.63;;;;;;;;;;5044108;28;20048;-56
2022/10/21 20:26:43;;;;;;;40.65;5.25;;;;;;;;;;5045177;28;20093;-54
2022/10/21 20:29:10;;;;;;;13.23;1.02;;;;;;;;;;5045081;28;20044;-54
2022/10/21 20:31:36;;;;;;;40.17;4.25;;;;;;;;;;5047710;28;20045;-55
2022/10/21 20:34:03;;;;;;;44.67;5.78;;;;;;;;;;5048032;28;20082;-54
2022/10/21 20:36:33;;;;;;;39.97;2.95;;;;;;;;;;5045249;28;20037;-56
2022/10/21 20:39:01;;;;;;;32.45;2.75;;;;;;;;;;5045220;28;20047;-55
2022/10/21 20:41:32;;;;;;;22.02;1.98;;;;;;;;;;5045148;28;20099;-56
2022/10/21 20:43:59;;;;;;;24.65;2.00;;;;;;;;;;5044802;28;20037;-55
2022/10/21 20:46:26;;;;;;;81.15;5.55;;;;;;;;;;5047780;28;20041;-56
2022/10/21 20:48:53;;;;;;;46.63;6.10;;;;;;;;;;5045542;28;20404;-57
2022/10/21 20:51:24;;;;;;;57.13;5.30;;;;;;;;;;5044380;28;20037;-57
2022/10/21 20:53:51;;;;;;;45.03;3.50;;;;;;;;;;5044765;28;20061;-57
2022/10/21 20:56:18;;;;;;;43.72;4.93;;;;;;;;;;5044458;28;20525;-57
2022/10/21 20:58:45;;;;;;;52.03;3.75;;;;;;;;;;5044963;28;20041;-57
2022/10/21 21:01:13;;;;;;;33.33;2.38;;;;;;;;;;5048450;28;20041;-57
2022/10/21 21:03:41;;;;;;;37.20;2.65;;;;;;;;;;5044173;28;20041;-57
2022/10/21 21:06:09;;;;;;;17.20;2.70;;;;;;;;;;5044762;28;20087;-57
2022/10/21 21:08:36;;;;;;;46.45;3.72;;;;;;;;;;5044148;28;20052;-57
2022/10/21 21:11:15;;;;;;;35.42;2.40;;;;;;;;;;5044931;28;20048;-57
2022/10/21 21:13:43;;;;;;;55.95;4.75;;;;;;;;;;5046036;28;20041;-58
2022/10/21 21:16:14;;;;;;;59.50;4.13;;;;;;;;;;5049027;28;20041;-57
2022/10/21 21:18:43;;;;;;;35.50;2.45;;;;;;;;;;5044225;28;20429;-57
2022/10/21 21:21:14;;;;;;;47.05;3.35;;;;;;;;;;5043113;28;20048;-57
2022/10/21 21:23:41;;;;;;;56.28;4.60;;;;;;;;;;5048185;28;20067;-57
2022/10/21 21:26:11;;;;;;;49.85;4.38;;;;;;;;;;5044211;28;20037;-56
2022/10/21 21:28:38;;;;;;;74.28;5.03;;;;;;;;;;5046024;28;20060;-57
2022/10/21 21:31:05;;;;;;;20.63;4.20;;;;;;;;;;5047152;28;20051;-57
2022/10/21 21:33:32;;;;;;;49.08;3.35;;;;;;;;;;5044094;28;20089;-56
2022/10/21 21:35:59;;;;;;;30.90;2.17;;;;;;;;;;5044150;28;20052;-56
2022/10/21 21:38:26;;;;;;;44.63;3.70;;;;;;;;;;5044343;28;20037;-56
2022/10/21 21:40:53;;;;;;;47.58;3.65;;;;;;;;;;5044876;28;20037;-56
2022/10/21 21:43:20;;;;;;;24.13;2.15;;;;;;;;;;5045029;28;20512;-56
2022/10/21 21:45:47;;;;;;;28.60;2.25;;;;;;;;;;5044347;28;20036;-55